createdAt,value
2023-01-11T00:00:26.472Z,98.22
2023-01-11T00:01:26.519Z,98.22
2023-01-11T00:02:26.524Z,97.36
2023-01-11T00:03:26.433Z,96.64
2023-01-11T00:04:26.446Z,96.33
2023-01-11T00:05:26.417Z,95.20
2023-01-11T00:06:26.451Z,96.37
2023-01-11T00:07:26.434Z,97.50
2023-01-11T00:08:26.397Z,98.68
2023-01-11T00:09:26.365Z,98.84
2023-01-11T00:10:26.377Z,97.65
2023-01-11T00:11:26.379Z,98.33
2023-01-11T00:12:26.336Z,98.02
2023-01-11T00:13:26.378Z,98.06
2023-01-11T00:14:26.344Z,98.94
2023-01-11T00:15:26.310Z,96.94
2023-01-11T00:16:26.374Z,98.02
2023-01-11T00:17:26.278Z,97.56
2023-01-11T00:18:26.264Z,97.30
2023-01-11T00:19:26.298Z,97.61
2023-01-11T00:20:26.264Z,96.94
2023-01-11T00:21:26.241Z,96.58
2023-01-11T00:22:26.242Z,98.22
2023-01-11T00:23:26.272Z,97.50
2023-01-11T00:24:26.242Z,97.19
2023-01-11T00:25:26.191Z,98.02
2023-01-11T00:26:26.178Z,97.91
2023-01-11T00:27:26.168Z,98.22
2023-01-11T00:28:26.186Z,98.43
2023-01-11T00:29:26.173Z,98.33
2023-01-11T00:30:26.159Z,97.71
2023-01-11T00:31:26.189Z,97.30
2023-01-11T00:32:26.107Z,98.74
2023-01-11T00:33:26.130Z,98.38
2023-01-11T00:34:26.133Z,97.05
2023-01-11T00:35:26.117Z,98.99
2023-01-11T00:36:26.159Z,97.81
2023-01-11T00:37:26.043Z,97.71
2023-01-11T00:38:26.056Z,98.07
2023-01-11T00:39:26.066Z,96.94
2023-01-11T00:40:26.092Z,96.22
2023-01-11T00:41:26.031Z,98.33
2023-01-11T00:42:25.998Z,98.74
2023-01-11T00:43:25.995Z,98.53
2023-01-11T00:44:26.010Z,97.25
2023-01-11T00:45:25.959Z,98.38
2023-01-11T00:46:26.094Z,97.97
2023-01-11T00:47:25.941Z,97.36
2023-01-11T00:48:25.928Z,96.94
2023-01-11T00:49:25.929Z,97.45
2023-01-11T00:50:25.910Z,97.71
2023-01-11T00:51:25.894Z,97.91
2023-01-11T00:52:25.947Z,98.79
2023-01-11T00:53:25.882Z,99.56
2023-01-11T00:54:25.871Z,99.46
2023-01-11T00:55:25.851Z,98.74
2023-01-11T00:56:25.856Z,98.63
2023-01-11T00:57:25.850Z,98.43
2023-01-11T00:58:25.843Z,97.45
2023-01-11T00:59:25.817Z,98.74
2023-01-11T01:00:25.786Z,98.74
2023-01-11T01:01:25.811Z,99.35
2023-01-11T01:02:25.804Z,98.94
2023-01-11T01:03:25.759Z,98.59
2023-01-11T01:04:25.764Z,98.38
2023-01-11T01:05:25.735Z,98.38
2023-01-11T01:06:25.741Z,99.66
2023-01-11T01:07:25.714Z,98.59
2023-01-11T01:08:25.710Z,99.05
2023-01-11T01:09:25.713Z,99.51
2023-01-11T01:10:25.679Z,99.99
2023-01-11T01:11:25.691Z,99.99
2023-01-11T01:12:25.652Z,99.99
2023-01-11T01:13:25.655Z,99.99
2023-01-11T01:14:25.621Z,99.99
2023-01-11T01:15:25.712Z,99.99
2023-01-11T01:16:25.617Z,99.99
2023-01-11T01:17:25.598Z,99.99
2023-01-11T01:18:25.591Z,99.99
2023-01-11T01:19:25.572Z,99.99
2023-01-11T01:20:25.560Z,99.99
2023-01-11T01:21:25.634Z,99.99
2023-01-11T01:22:25.589Z,99.99
2023-01-11T01:23:25.545Z,99.99
2023-01-11T01:24:25.529Z,99.99
2023-01-11T01:25:25.540Z,99.99
2023-01-11T01:26:25.508Z,99.99
2023-01-11T01:27:25.552Z,99.99
2023-01-11T01:28:25.500Z,99.99
2023-01-11T01:29:25.464Z,99.99
2023-01-11T01:30:25.446Z,99.99
2023-01-11T01:31:25.500Z,99.99
2023-01-11T01:32:25.456Z,99.99
2023-01-11T01:33:25.437Z,99.99
2023-01-11T01:34:25.408Z,99.99
2023-01-11T01:35:25.404Z,99.99
2023-01-11T01:36:25.391Z,99.99
2023-01-11T01:37:25.381Z,99.99
2023-01-11T01:38:25.400Z,99.99
2023-01-11T01:39:25.356Z,99.99
2023-01-11T01:40:25.337Z,99.99
2023-01-11T01:41:25.327Z,99.99
2023-01-11T01:42:25.337Z,99.99
2023-01-11T01:43:25.296Z,99.99
2023-01-11T01:44:25.309Z,99.99
2023-01-11T01:45:25.303Z,99.99
2023-01-11T01:46:25.340Z,99.99
2023-01-11T01:47:25.275Z,99.99
2023-01-11T01:48:25.237Z,99.99
2023-01-11T01:49:25.262Z,99.99
2023-01-11T01:50:25.226Z,99.99
2023-01-11T01:51:25.227Z,99.99
2023-01-11T01:52:25.205Z,99.99
2023-01-11T01:53:25.211Z,99.99
2023-01-11T01:54:25.175Z,99.99
2023-01-11T01:55:25.179Z,99.99
2023-01-11T01:56:25.163Z,99.99
2023-01-11T01:57:25.148Z,99.99
2023-01-11T01:58:25.141Z,99.99
2023-01-11T01:59:25.125Z,99.99
2023-01-11T02:00:25.108Z,99.99
2023-01-11T02:01:25.142Z,99.99
2023-01-11T02:02:25.171Z,99.99
2023-01-11T02:03:25.078Z,99.99
2023-01-11T02:04:25.106Z,99.99
2023-01-11T02:05:25.038Z,99.99
2023-01-11T02:06:25.071Z,99.99
2023-01-11T02:07:25.057Z,99.99
2023-01-11T02:08:25.010Z,99.99
2023-01-11T02:09:25.002Z,99.99
2023-01-11T02:10:25.005Z,99.99
2023-01-11T02:11:24.995Z,99.99
2023-01-11T02:12:24.988Z,99.99
2023-01-11T02:13:24.979Z,99.99
2023-01-11T02:14:24.954Z,99.99
2023-01-11T02:15:24.936Z,99.99
2023-01-11T02:16:24.943Z,99.99
2023-01-11T02:17:24.916Z,99.99
2023-01-11T02:18:24.929Z,99.99
2023-01-11T02:19:24.895Z,99.99
2023-01-11T02:20:24.910Z,99.99
2023-01-11T02:21:24.871Z,99.99
2023-01-11T02:22:24.870Z,99.99
2023-01-11T02:23:24.878Z,99.99
2023-01-11T02:24:24.863Z,99.99
2023-01-11T02:25:24.824Z,99.99
2023-01-11T02:26:24.825Z,99.99
2023-01-11T02:27:24.801Z,99.99
2023-01-11T02:28:24.794Z,99.99
2023-01-11T02:29:24.803Z,99.99
2023-01-11T02:30:24.796Z,99.99
2023-01-11T02:31:24.776Z,99.99
2023-01-11T02:32:24.741Z,99.99
2023-01-11T02:33:24.755Z,99.99
2023-01-11T02:34:24.745Z,99.99
2023-01-11T02:35:24.731Z,99.99
2023-01-11T02:36:24.712Z,99.99
2023-01-11T02:37:24.707Z,99.99
2023-01-11T02:38:24.701Z,99.99
2023-01-11T02:39:24.703Z,99.99
2023-01-11T02:40:24.662Z,99.99
2023-01-11T02:41:24.676Z,99.99
2023-01-11T02:42:24.634Z,99.99
2023-01-11T02:43:24.612Z,99.99
2023-01-11T02:44:24.612Z,99.99
2023-01-11T02:45:24.589Z,99.99
2023-01-11T02:46:24.661Z,99.99
2023-01-11T02:47:24.603Z,99.99
2023-01-11T02:48:24.568Z,99.99
2023-01-11T02:49:24.551Z,99.99
2023-01-11T02:50:24.549Z,99.99
2023-01-11T02:51:24.544Z,99.99
2023-01-11T02:52:24.556Z,99.99
2023-01-11T02:53:24.503Z,99.99
2023-01-11T02:54:24.504Z,99.99
2023-01-11T02:55:24.480Z,99.99
2023-01-11T02:56:24.475Z,99.99
2023-01-11T02:57:24.458Z,99.99
2023-01-11T02:58:24.475Z,99.99
2023-01-11T02:59:24.438Z,99.99
2023-01-11T03:00:24.427Z,99.99
2023-01-11T03:01:24.449Z,99.99
2023-01-11T03:02:24.444Z,99.99
2023-01-11T03:03:24.398Z,99.99
2023-01-11T03:04:24.410Z,99.99
2023-01-11T03:05:24.373Z,99.99
2023-01-11T03:06:24.391Z,99.99
2023-01-11T03:07:24.384Z,99.99
2023-01-11T03:08:24.350Z,99.99
2023-01-11T03:09:24.333Z,99.99
2023-01-11T03:10:24.336Z,99.99
2023-01-11T03:11:24.296Z,99.99
2023-01-11T03:12:24.299Z,99.99
2023-01-11T03:13:24.277Z,99.99
2023-01-11T03:14:24.271Z,99.99
2023-01-11T03:15:24.259Z,99.99
2023-01-11T03:16:24.358Z,99.99
2023-01-11T03:17:24.255Z,99.99
2023-01-11T03:18:24.223Z,99.99
2023-01-11T03:19:24.199Z,99.99
2023-01-11T03:20:24.208Z,99.99
2023-01-11T03:21:24.215Z,99.99
2023-01-11T03:22:24.178Z,99.99
2023-01-11T03:23:24.157Z,99.99
2023-01-11T03:24:24.151Z,99.99
2023-01-11T03:25:24.149Z,99.99
2023-01-11T03:26:24.125Z,99.99
2023-01-11T03:27:24.154Z,99.99
2023-01-11T03:28:24.108Z,99.99
2023-01-11T03:29:24.088Z,99.99
2023-01-11T03:30:24.098Z,99.99
2023-01-11T03:31:24.188Z,99.99
2023-01-11T03:32:24.051Z,99.99
2023-01-11T03:33:24.110Z,99.99
2023-01-11T03:34:24.045Z,99.99
2023-01-11T03:35:24.022Z,99.99
2023-01-11T03:36:24.012Z,99.99
2023-01-11T03:37:23.999Z,99.99
2023-01-11T03:38:24.002Z,99.99
2023-01-11T03:39:24.000Z,99.99
2023-01-11T03:40:23.970Z,99.99
2023-01-11T03:41:23.973Z,99.99
2023-01-11T03:42:23.942Z,99.99
2023-01-11T03:43:23.932Z,99.99
2023-01-11T03:44:23.945Z,99.99
2023-01-11T03:45:23.928Z,99.99
2023-01-11T03:46:23.949Z,99.99
2023-01-11T03:47:23.879Z,99.99
2023-01-11T03:48:23.886Z,99.99
2023-01-11T03:49:23.863Z,99.99
2023-01-11T03:50:23.908Z,99.99
2023-01-11T03:51:23.850Z,99.99
2023-01-11T03:52:23.831Z,99.99
2023-01-11T03:53:23.830Z,99.99
2023-01-11T03:54:23.832Z,99.99
2023-01-11T03:55:23.801Z,99.99
2023-01-11T03:56:23.897Z,99.99
2023-01-11T03:57:23.783Z,99.99
2023-01-11T03:58:23.765Z,99.99
2023-01-11T03:59:23.752Z,99.99
2023-01-11T04:00:23.743Z,99.99
2023-01-11T04:01:23.739Z,99.99
2023-01-11T04:02:23.733Z,99.99
2023-01-11T04:03:26.850Z,99.99
2023-01-11T04:04:23.707Z,99.99
2023-01-11T04:05:23.693Z,99.99
2023-01-11T04:06:23.691Z,99.99
2023-01-11T04:07:23.658Z,99.99
2023-01-11T04:08:23.704Z,99.99
2023-01-11T04:09:23.639Z,99.99
2023-01-11T04:10:23.644Z,99.99
2023-01-11T04:11:23.615Z,99.99
2023-01-11T04:12:23.625Z,99.99
2023-01-11T04:13:23.606Z,99.99
2023-01-11T04:14:23.610Z,99.99
2023-01-11T04:15:23.576Z,99.99
2023-01-11T04:16:23.580Z,99.99
2023-01-11T04:17:23.545Z,99.99
2023-01-11T04:18:23.574Z,99.99
2023-01-11T04:19:23.522Z,99.99
2023-01-11T04:20:23.551Z,99.99
2023-01-11T04:21:23.509Z,99.99
2023-01-11T04:22:23.491Z,99.99
2023-01-11T04:23:23.505Z,99.99
2023-01-11T04:24:23.455Z,99.99
2023-01-11T04:25:23.553Z,99.99
2023-01-11T04:26:23.436Z,99.99
2023-01-11T04:27:23.427Z,99.99
2023-01-11T04:28:23.432Z,99.99
2023-01-11T04:29:23.416Z,99.99
2023-01-11T04:30:23.392Z,99.99
2023-01-11T04:31:23.524Z,99.99
2023-01-11T04:32:23.373Z,99.99
2023-01-11T04:33:23.380Z,99.99
2023-01-11T04:34:23.350Z,99.99
2023-01-11T04:35:23.356Z,99.99
2023-01-11T04:36:23.325Z,99.99
2023-01-11T04:37:23.341Z,99.99
2023-01-11T04:38:23.317Z,99.99
2023-01-11T04:39:23.315Z,99.99
2023-01-11T04:40:23.282Z,99.99
2023-01-11T04:41:23.830Z,99.99
2023-01-11T04:42:23.309Z,99.99
2023-01-11T04:43:23.245Z,99.99
2023-01-11T04:44:23.248Z,99.99
2023-01-11T04:45:23.230Z,99.99
2023-01-11T04:46:23.246Z,99.99
2023-01-11T04:47:23.210Z,99.99
2023-01-11T04:48:23.262Z,99.99
2023-01-11T04:49:23.207Z,99.99
2023-01-11T04:50:23.189Z,99.99
2023-01-11T04:51:23.166Z,99.99
2023-01-11T04:52:23.145Z,99.99
2023-01-11T04:53:23.183Z,99.99
2023-01-11T04:54:23.119Z,99.99
2023-01-11T04:55:23.110Z,99.99
2023-01-11T04:56:23.097Z,99.99
2023-01-11T04:57:23.080Z,99.99
2023-01-11T04:58:23.084Z,99.99
2023-01-11T04:59:23.098Z,99.99
2023-01-11T05:00:23.055Z,99.99
2023-01-11T05:01:23.105Z,99.99
2023-01-11T05:02:23.031Z,99.99
2023-01-11T05:03:23.022Z,99.99
2023-01-11T05:04:23.076Z,99.99
2023-01-11T05:05:23.005Z,99.99
2023-01-11T05:06:23.028Z,99.99
2023-01-11T05:07:22.970Z,99.99
2023-01-11T05:08:22.973Z,99.99
2023-01-11T05:09:22.968Z,99.99
2023-01-11T05:10:22.973Z,99.99
2023-01-11T05:11:22.945Z,99.99
2023-01-11T05:12:22.924Z,99.99
2023-01-11T05:13:22.904Z,99.99
2023-01-11T05:14:22.895Z,99.99
2023-01-11T05:15:22.893Z,99.99
2023-01-11T05:16:22.993Z,99.99
2023-01-11T05:17:22.874Z,99.99
2023-01-11T05:18:22.852Z,99.99
2023-01-11T05:19:22.856Z,99.99
2023-01-11T05:20:22.825Z,99.99
2023-01-11T05:21:22.815Z,99.99
2023-01-11T05:22:22.834Z,99.99
2023-01-11T05:23:22.796Z,99.99
2023-01-11T05:24:22.807Z,99.99
2023-01-11T05:25:22.773Z,99.99
2023-01-11T05:26:22.795Z,99.99
2023-01-11T05:27:22.776Z,99.99
2023-01-11T05:28:22.757Z,99.99
2023-01-11T05:29:22.735Z,99.99
2023-01-11T05:30:22.723Z,99.99
2023-01-11T05:31:22.710Z,99.99
2023-01-11T05:32:22.693Z,99.99
2023-01-11T05:33:22.706Z,99.99
2023-01-11T05:34:22.671Z,99.99
2023-01-11T05:35:22.650Z,99.99
2023-01-11T05:36:22.645Z,99.99
2023-01-11T05:37:22.629Z,99.99
2023-01-11T05:38:22.628Z,99.99
2023-01-11T05:39:22.624Z,99.99
2023-01-11T05:40:22.614Z,99.99
2023-01-11T05:41:22.585Z,99.99
2023-01-11T05:42:22.582Z,99.99
2023-01-11T05:43:22.567Z,99.99
2023-01-11T05:44:22.560Z,99.99
2023-01-11T05:45:22.567Z,99.99
2023-01-11T05:46:22.537Z,99.99
2023-01-11T05:47:22.522Z,99.99
2023-01-11T05:48:22.506Z,99.99
2023-01-11T05:49:22.505Z,99.99
2023-01-11T05:50:22.491Z,99.99
2023-01-11T05:51:22.547Z,99.99
2023-01-11T05:52:22.455Z,99.99
2023-01-11T05:53:22.446Z,99.99
2023-01-11T05:54:22.433Z,99.99
2023-01-11T05:55:22.465Z,99.99
2023-01-11T05:56:22.442Z,99.99
2023-01-11T05:57:22.457Z,99.99
2023-01-11T05:58:22.386Z,99.99
2023-01-11T05:59:22.398Z,99.99
2023-01-11T06:00:22.372Z,99.99
2023-01-11T06:01:22.375Z,99.99
2023-01-11T06:02:22.476Z,99.99
2023-01-11T06:03:22.430Z,99.99
2023-01-11T06:04:22.319Z,99.99
2023-01-11T06:05:22.333Z,99.99
2023-01-11T06:06:22.404Z,99.99
2023-01-11T06:07:22.334Z,99.99
2023-01-11T06:08:22.309Z,99.99
2023-01-11T06:09:22.298Z,99.99
2023-01-11T06:10:22.284Z,99.99
2023-01-11T06:11:22.283Z,99.99
2023-01-11T06:12:22.255Z,99.99
2023-01-11T06:13:22.220Z,99.99
2023-01-11T06:14:22.250Z,99.99
2023-01-11T06:15:22.238Z,99.99
2023-01-11T06:16:22.287Z,99.99
2023-01-11T06:17:22.189Z,99.99
2023-01-11T06:18:22.170Z,99.99
2023-01-11T06:19:22.160Z,99.99
2023-01-11T06:20:22.298Z,99.99
2023-01-11T06:21:22.180Z,99.99
2023-01-11T06:22:22.127Z,99.99
2023-01-11T06:23:22.119Z,99.99
2023-01-11T06:24:22.126Z,99.99
2023-01-11T06:25:22.096Z,99.99
2023-01-11T06:26:22.131Z,99.99
2023-01-11T06:27:22.092Z,99.99
2023-01-11T06:28:22.059Z,99.99
2023-01-11T06:29:22.049Z,99.99
2023-01-11T06:30:22.037Z,99.99
2023-01-11T06:31:22.221Z,99.99
2023-01-11T06:32:22.042Z,99.99
2023-01-11T06:33:22.004Z,99.99
2023-01-11T06:34:21.993Z,99.99
2023-01-11T06:35:21.977Z,99.99
2023-01-11T06:36:21.962Z,99.99
2023-01-11T06:37:21.952Z,99.99
2023-01-11T06:38:22.023Z,99.99
2023-01-11T06:39:21.945Z,99.99
2023-01-11T06:40:21.915Z,99.99
2023-01-11T06:41:21.929Z,99.99
2023-01-11T06:42:21.893Z,99.99
2023-01-11T06:43:21.880Z,99.99
2023-01-11T06:44:21.905Z,99.99
2023-01-11T06:45:21.892Z,99.99
2023-01-11T06:46:21.917Z,99.99
2023-01-11T06:47:21.849Z,99.99
2023-01-11T06:48:21.826Z,99.99
2023-01-11T06:49:21.817Z,99.99
2023-01-11T06:50:21.841Z,99.99
2023-01-11T06:51:21.797Z,99.99
2023-01-11T06:52:21.796Z,99.99
2023-01-11T06:53:21.789Z,99.99
2023-01-11T06:54:21.801Z,99.99
2023-01-11T06:55:21.789Z,99.99
2023-01-11T06:56:21.760Z,99.99
2023-01-11T06:57:21.726Z,99.99
2023-01-11T06:58:21.716Z,99.99
2023-01-11T06:59:21.703Z,99.99
2023-01-11T07:00:21.726Z,99.99
2023-01-11T07:01:21.740Z,99.99
2023-01-11T07:02:21.673Z,99.99
2023-01-11T07:03:21.678Z,99.99
2023-01-11T07:04:21.657Z,99.99
2023-01-11T07:05:21.659Z,99.99
2023-01-11T07:06:21.649Z,99.99
2023-01-11T07:07:21.655Z,99.99
2023-01-11T07:08:21.615Z,99.99
2023-01-11T07:09:21.588Z,99.99
2023-01-11T07:10:21.683Z,99.99
2023-01-11T07:11:21.622Z,99.99
2023-01-11T07:12:21.577Z,99.99
2023-01-11T07:13:21.592Z,99.99
2023-01-11T07:14:21.548Z,99.99
2023-01-11T07:15:21.561Z,99.99
2023-01-11T07:16:21.605Z,99.99
2023-01-11T07:17:21.530Z,99.99
2023-01-11T07:18:21.489Z,99.99
2023-01-11T07:19:21.500Z,99.99
2023-01-11T07:20:21.477Z,99.99
2023-01-11T07:21:21.461Z,99.99
2023-01-11T07:22:21.442Z,99.99
2023-01-11T07:23:21.441Z,99.99
2023-01-11T07:24:21.457Z,99.99
2023-01-11T07:25:21.435Z,99.99
2023-01-11T07:26:21.445Z,99.99
2023-01-11T07:27:21.450Z,99.99
2023-01-11T07:28:21.401Z,99.99
2023-01-11T07:29:21.380Z,99.99
2023-01-11T07:30:21.400Z,99.99
2023-01-11T07:31:21.404Z,99.99
2023-01-11T07:32:21.336Z,99.99
2023-01-11T07:33:21.331Z,99.99
2023-01-11T07:34:21.320Z,99.99
2023-01-11T07:35:21.347Z,99.99
2023-01-11T07:36:21.302Z,99.99
2023-01-11T07:37:28.653Z,99.99
2023-01-11T07:38:22.291Z,99.99
2023-01-11T07:39:24.852Z,99.99
2023-01-11T07:40:22.288Z,99.99
2023-01-11T07:41:21.241Z,99.99
2023-01-11T07:42:21.221Z,99.99
2023-01-11T07:43:21.222Z,99.99
2023-01-11T07:44:21.211Z,99.99
2023-01-11T07:45:21.249Z,99.99
2023-01-11T07:46:21.379Z,99.99
2023-01-11T07:47:21.195Z,99.99
2023-01-11T07:48:21.321Z,99.99
2023-01-11T07:49:21.150Z,99.99
2023-01-11T07:50:21.177Z,99.99
2023-01-11T07:51:21.148Z,99.99
2023-01-11T07:52:21.132Z,99.99
2023-01-11T07:53:21.115Z,99.99
2023-01-11T07:54:21.093Z,99.99
2023-01-11T07:55:21.084Z,99.99
2023-01-11T07:56:23.394Z,99.99
2023-01-11T07:57:21.119Z,99.99
2023-01-11T07:58:21.046Z,99.99
2023-01-11T07:59:21.061Z,99.99
2023-01-11T08:00:21.024Z,99.99
2023-01-11T08:01:21.009Z,99.99
2023-01-11T08:02:21.083Z,99.99
2023-01-11T08:03:21.198Z,99.99
2023-01-11T08:04:20.997Z,99.99
2023-01-11T08:05:20.976Z,99.99
2023-01-11T08:06:20.956Z,99.99
2023-01-11T08:07:20.938Z,99.99
2023-01-11T08:08:20.984Z,99.99
2023-01-11T08:09:20.951Z,99.99
2023-01-11T08:10:20.937Z,99.99
2023-01-11T08:11:20.906Z,99.99
2023-01-11T08:12:20.953Z,99.99
2023-01-11T08:13:20.872Z,99.99
2023-01-11T08:14:20.908Z,99.99
2023-01-11T08:15:22.933Z,99.99
2023-01-11T08:16:20.936Z,99.99
2023-01-11T08:17:20.872Z,99.99
2023-01-11T08:18:20.830Z,99.99
2023-01-11T08:19:20.829Z,99.99
2023-01-11T08:20:20.828Z,99.99
2023-01-11T08:21:20.800Z,99.99
2023-01-11T08:22:20.801Z,99.99
2023-01-11T08:23:20.774Z,99.99
2023-01-11T08:24:20.768Z,99.99
2023-01-11T08:25:20.792Z,99.99
2023-01-11T08:26:20.723Z,99.99
2023-01-11T08:27:20.758Z,99.99
2023-01-11T08:28:20.700Z,99.99
2023-01-11T08:29:20.694Z,99.99
2023-01-11T08:30:20.690Z,99.99
2023-01-11T08:31:20.771Z,99.99
2023-01-11T08:32:20.674Z,99.99
2023-01-11T08:33:20.675Z,99.99
2023-01-11T08:34:20.641Z,99.99
2023-01-11T08:35:20.686Z,99.99
2023-01-11T08:36:20.610Z,99.99
2023-01-11T08:37:20.639Z,99.99
2023-01-11T08:38:20.594Z,99.99
2023-01-11T08:39:20.608Z,99.99
2023-01-11T08:40:23.625Z,99.99
2023-01-11T08:41:20.574Z,99.99
2023-01-11T08:42:20.551Z,99.99
2023-01-11T08:43:20.593Z,99.99
2023-01-11T08:44:33.254Z,99.99
2023-01-11T08:45:21.511Z,99.99
2023-01-11T08:46:20.524Z,99.99
2023-01-11T08:47:20.510Z,99.99
2023-01-11T08:48:20.482Z,99.99
2023-01-11T08:49:20.491Z,99.99
2023-01-11T08:50:21.285Z,99.99
2023-01-11T08:51:20.449Z,99.99
2023-01-11T08:52:20.435Z,99.99
2023-01-11T08:53:20.421Z,99.99
2023-01-11T08:54:20.511Z,99.99
2023-01-11T08:55:20.398Z,99.99
2023-01-11T08:56:20.504Z,99.99
2023-01-11T08:57:20.363Z,99.99
2023-01-11T08:58:27.934Z,99.99
2023-01-11T08:59:20.350Z,99.99
2023-01-11T09:00:20.395Z,99.99
2023-01-11T09:01:20.360Z,99.99
2023-01-11T09:02:20.327Z,99.99
2023-01-11T09:03:20.304Z,99.99
2023-01-11T09:04:25.197Z,99.99
2023-01-11T09:05:21.349Z,99.99
2023-01-11T09:06:20.263Z,99.99
2023-01-11T09:07:20.273Z,99.99
2023-01-11T09:08:20.247Z,99.99
2023-01-11T09:09:20.238Z,99.99
2023-01-11T09:10:20.248Z,99.99
2023-01-11T09:11:20.257Z,99.99
2023-01-11T09:12:20.226Z,99.99
2023-01-11T09:13:20.226Z,99.99
2023-01-11T09:14:20.187Z,99.99
2023-01-11T09:15:20.180Z,99.99
2023-01-11T09:16:20.246Z,99.99
2023-01-11T09:17:20.139Z,99.99
2023-01-11T09:18:20.146Z,99.99
2023-01-11T09:19:20.125Z,99.99
2023-01-11T09:20:20.100Z,99.99
2023-01-11T09:21:20.140Z,99.99
2023-01-11T09:22:20.110Z,99.99
2023-01-11T09:23:20.117Z,99.99
2023-01-11T09:24:20.072Z,99.99
2023-01-11T09:25:20.137Z,99.99
2023-01-11T09:26:20.061Z,99.99
2023-01-11T09:27:20.038Z,99.99
2023-01-11T09:28:20.025Z,99.99
2023-01-11T09:29:20.089Z,99.99
2023-01-11T09:30:20.024Z,99.99
2023-01-11T09:31:20.082Z,99.99
2023-01-11T09:32:19.968Z,99.99
2023-01-11T09:33:19.978Z,99.99
2023-01-11T09:34:19.948Z,99.99
2023-01-11T09:35:19.961Z,99.99
2023-01-11T09:36:19.940Z,99.99
2023-01-11T09:37:19.910Z,99.99
2023-01-11T09:38:19.901Z,99.99
2023-01-11T09:39:19.905Z,99.99
2023-01-11T09:40:19.881Z,99.99
2023-01-11T09:41:20.010Z,99.99
2023-01-11T09:42:19.870Z,99.99
2023-01-11T09:43:19.861Z,99.99
2023-01-11T09:44:19.842Z,99.99
2023-01-11T09:45:19.826Z,99.99
2023-01-11T09:46:19.932Z,99.99
2023-01-11T09:47:19.919Z,99.99
2023-01-11T09:48:19.790Z,99.99
2023-01-11T09:49:19.795Z,99.99
2023-01-11T09:50:19.829Z,99.99
2023-01-11T09:51:19.745Z,99.99
2023-01-11T09:52:19.961Z,99.99
2023-01-11T09:53:19.740Z,99.99
2023-01-11T09:54:19.732Z,99.99
2023-01-11T09:55:19.720Z,99.99
2023-01-11T09:56:19.694Z,99.99
2023-01-11T09:57:19.766Z,99.99
2023-01-11T09:58:19.731Z,99.99
2023-01-11T09:59:19.682Z,99.99
2023-01-11T10:00:19.673Z,99.99
2023-01-11T10:01:19.696Z,99.99
2023-01-11T10:02:20.342Z,99.99
2023-01-11T10:03:19.636Z,99.99
2023-01-11T10:04:19.682Z,99.99
2023-01-11T10:05:19.603Z,99.99
2023-01-11T10:06:21.787Z,99.99
2023-01-11T10:07:19.573Z,99.99
2023-01-11T10:18:22.885Z,99.99
2023-01-11T10:18:27.369Z,99.99
2023-01-11T10:18:30.853Z,99.99
2023-01-11T10:18:31.576Z,99.99
2023-01-11T10:18:38.838Z,99.99
2023-01-11T10:19:35.023Z,99.99
2023-01-11T10:20:20.487Z,99.99
2023-01-11T10:21:19.437Z,99.99
2023-01-11T10:22:19.562Z,99.99
2023-01-11T10:23:19.409Z,99.99
2023-01-11T10:24:19.403Z,99.99
2023-01-11T10:25:19.380Z,99.99
2023-01-11T10:26:19.377Z,99.99
2023-01-11T10:27:19.393Z,99.99
2023-01-11T10:28:19.328Z,99.99
2023-01-11T10:29:19.330Z,99.99
2023-01-11T10:30:19.336Z,99.99
2023-01-11T10:31:19.313Z,99.99
2023-01-11T10:32:19.299Z,99.99
2023-01-11T10:33:19.277Z,99.99
2023-01-11T10:34:19.270Z,99.99
2023-01-11T10:35:19.240Z,99.99
2023-01-11T10:36:24.016Z,99.99
2023-01-11T10:37:19.238Z,99.99
2023-01-11T10:38:19.259Z,99.99
2023-01-11T10:39:19.199Z,99.99
2023-01-11T10:40:19.258Z,99.99
2023-01-11T10:41:19.173Z,99.99
2023-01-11T10:42:19.192Z,99.99
2023-01-11T10:43:19.149Z,99.99
2023-01-11T10:44:19.380Z,99.99
2023-01-11T10:45:19.135Z,99.99
2023-01-11T10:46:19.126Z,99.99
2023-01-11T10:47:19.264Z,99.99
2023-01-11T10:48:19.111Z,99.99
2023-01-11T10:49:19.140Z,99.99
2023-01-11T10:50:19.110Z,99.99
2023-01-11T10:51:19.054Z,99.99
2023-01-11T10:52:19.042Z,99.99
2023-01-11T10:53:19.046Z,99.99
2023-01-11T10:54:19.049Z,99.99
2023-01-11T10:55:19.001Z,99.99
2023-01-11T10:56:19.069Z,99.99
2023-01-11T10:57:19.053Z,99.99
2023-01-11T10:58:19.001Z,99.99
2023-01-11T10:59:19.044Z,99.99
2023-01-11T11:00:18.960Z,99.99
2023-01-11T11:01:19.002Z,99.99
2023-01-11T11:02:21.148Z,99.99
2023-01-11T11:03:18.939Z,99.99
2023-01-11T11:04:18.935Z,99.99
2023-01-11T11:05:18.937Z,99.99
2023-01-11T11:06:18.906Z,99.99
2023-01-11T11:07:18.882Z,99.99
2023-01-11T11:08:18.902Z,99.99
2023-01-11T11:09:18.863Z,99.99
2023-01-11T11:10:18.843Z,99.99
2023-01-11T11:11:18.865Z,99.99
2023-01-11T11:12:18.824Z,99.99
2023-01-11T11:13:18.836Z,99.99
2023-01-11T11:14:18.827Z,99.99
2023-01-11T11:15:18.812Z,99.99
2023-01-11T11:16:18.843Z,99.99
2023-01-11T11:17:18.777Z,99.99
2023-01-11T11:18:18.752Z,99.99
2023-01-11T11:19:18.767Z,99.99
2023-01-11T11:20:18.729Z,99.99
2023-01-11T11:21:18.727Z,99.99
2023-01-11T11:22:18.771Z,99.99
2023-01-11T11:23:18.730Z,99.99
2023-01-11T11:24:18.725Z,99.99
2023-01-11T11:25:18.692Z,99.99
2023-01-11T11:26:18.656Z,99.99
2023-01-11T11:27:18.663Z,99.99
2023-01-11T11:28:18.645Z,99.99
2023-01-11T11:29:18.667Z,99.99
2023-01-11T11:30:18.667Z,99.99
2023-01-11T11:31:18.639Z,99.99
2023-01-11T11:32:18.612Z,99.99
2023-01-11T11:33:18.588Z,99.99
2023-01-11T11:34:18.566Z,99.99
2023-01-11T11:35:18.567Z,99.99
2023-01-11T11:36:18.584Z,99.99
2023-01-11T11:37:18.539Z,99.99
2023-01-11T11:38:18.528Z,99.99
2023-01-11T11:39:18.535Z,99.99
2023-01-11T11:40:18.539Z,99.99
2023-01-11T11:41:18.490Z,99.99
2023-01-11T11:42:18.548Z,99.99
2023-01-11T11:43:18.532Z,99.99
2023-01-11T11:44:18.489Z,99.99
2023-01-11T11:45:18.467Z,99.99
2023-01-11T11:46:19.795Z,99.99
2023-01-11T11:47:18.419Z,99.99
2023-01-11T11:48:18.461Z,99.99
2023-01-11T11:49:18.430Z,99.99
2023-01-11T11:50:27.390Z,99.99
2023-01-11T11:51:19.395Z,99.99
2023-01-11T11:52:18.402Z,99.99
2023-01-11T11:53:18.376Z,99.99
2023-01-11T11:54:18.376Z,99.99
2023-01-11T11:55:18.327Z,99.99
2023-01-11T11:56:18.353Z,99.99
2023-01-11T11:57:18.323Z,99.99
2023-01-11T11:58:18.451Z,99.99
2023-01-11T11:59:18.311Z,99.99
2023-01-11T12:00:18.344Z,99.99
2023-01-11T12:01:18.272Z,99.99
2023-01-11T12:02:18.328Z,99.99
2023-01-11T12:03:18.412Z,99.99
2023-01-11T12:04:18.228Z,99.99
2023-01-11T12:05:18.236Z,99.99
2023-01-11T12:06:18.250Z,99.99
2023-01-11T12:07:18.203Z,99.99
2023-01-11T12:08:18.201Z,99.99
2023-01-11T12:09:18.173Z,99.99
2023-01-11T12:10:18.156Z,99.99
2023-01-11T12:11:18.184Z,99.99
2023-01-11T12:12:18.147Z,99.99
2023-01-11T12:13:18.124Z,99.99
2023-01-11T12:14:18.171Z,99.99
2023-01-11T12:15:18.141Z,99.99
2023-01-11T12:16:18.174Z,99.99
2023-01-11T12:17:18.241Z,99.99
2023-01-11T12:18:18.075Z,99.99
2023-01-11T12:19:18.065Z,99.99
2023-01-11T12:20:18.055Z,99.99
2023-01-11T12:21:18.060Z,99.99
2023-01-11T12:22:18.087Z,99.99
2023-01-11T12:23:18.023Z,99.99
2023-01-11T12:24:18.002Z,99.99
2023-01-11T12:25:17.987Z,99.99
2023-01-11T12:26:18.001Z,99.99
2023-01-11T12:27:18.063Z,99.99
2023-01-11T12:28:17.987Z,99.99
2023-01-11T12:29:17.945Z,99.99
2023-01-11T12:30:20.156Z,99.99
2023-01-11T12:31:17.923Z,99.99
2023-01-11T12:32:17.913Z,99.99
2023-01-11T12:33:17.896Z,99.99
2023-01-11T12:34:17.923Z,99.99
2023-01-11T12:35:17.877Z,99.99
2023-01-11T12:36:17.864Z,99.99
2023-01-11T12:37:17.860Z,99.99
2023-01-11T12:38:17.841Z,99.99
2023-01-11T12:39:17.836Z,99.99
2023-01-11T12:40:17.947Z,99.99
2023-01-11T12:41:17.840Z,99.99
2023-01-11T12:42:17.848Z,99.99
2023-01-11T12:43:17.779Z,99.99
2023-01-11T12:44:17.781Z,99.99
2023-01-11T12:45:17.758Z,99.99
2023-01-11T12:46:17.788Z,99.99
2023-01-11T12:47:18.062Z,99.99
2023-01-11T12:48:17.732Z,99.99
2023-01-11T12:49:17.727Z,99.99
2023-01-11T12:50:17.708Z,99.99
2023-01-11T12:51:17.696Z,99.99
2023-01-11T12:52:17.949Z,99.99
2023-01-11T12:53:17.684Z,99.99
2023-01-11T12:54:17.658Z,99.99
2023-01-11T12:55:17.652Z,99.99
2023-01-11T12:56:17.649Z,99.99
2023-01-11T12:57:17.644Z,99.99
2023-01-11T12:58:17.612Z,99.99